createdAt,value
2019-03-29T00:00:28.844Z,11.67
2019-03-29T00:03:34.974Z,10.07
2019-03-29T00:06:40.609Z,10.83
2019-03-29T00:09:46.136Z,10.10
2019-03-29T00:12:51.597Z,10.40
2019-03-29T00:15:57.044Z,11.50
2019-03-29T00:19:02.650Z,11.30
2019-03-29T00:22:08.161Z,9.83
2019-03-29T00:25:13.685Z,8.90
2019-03-29T00:28:19.204Z,9.67
2019-03-29T00:31:24.701Z,9.90
2019-03-29T00:34:30.240Z,9.30
2019-03-29T00:37:35.784Z,8.93
2019-03-29T00:40:41.299Z,9.70
2019-03-29T00:43:46.784Z,10.17
2019-03-29T00:46:52.240Z,9.90
2019-03-29T00:49:57.778Z,9.87
2019-03-29T00:53:03.237Z,10.70
2019-03-29T00:56:08.700Z,9.20
2019-03-29T00:59:14.304Z,10.17
2019-03-29T01:02:20.481Z,9.57
2019-03-29T01:05:27.086Z,10.53
2019-03-29T01:08:32.637Z,10.10
2019-03-29T01:11:38.087Z,8.97
2019-03-29T01:14:43.792Z,10.00
2019-03-29T01:17:49.314Z,9.43
2019-03-29T01:20:54.936Z,9.43
2019-03-29T01:24:00.465Z,9.87
2019-03-29T01:27:05.929Z,10.03
2019-03-29T01:30:11.616Z,9.37
2019-03-29T01:33:17.144Z,8.73
2019-03-29T01:36:22.620Z,9.63
2019-03-29T01:39:28.090Z,10.03
2019-03-29T01:42:33.547Z,11.83
2019-03-29T01:45:39.200Z,10.10
2019-03-29T01:48:44.652Z,9.93
2019-03-29T01:51:50.109Z,8.73
2019-03-29T01:54:57.008Z,9.93
2019-03-29T01:58:02.656Z,10.10
2019-03-29T02:01:08.192Z,10.07
2019-03-29T02:04:13.645Z,9.90
2019-03-29T02:07:19.098Z,9.60
2019-03-29T02:10:24.713Z,9.87
2019-03-29T02:13:30.165Z,10.10
2019-03-29T02:16:35.632Z,10.70
2019-03-29T02:19:41.197Z,10.83
2019-03-29T02:22:46.640Z,9.30
2019-03-29T02:25:52.102Z,9.90
2019-03-29T02:28:57.544Z,10.33
2019-03-29T02:32:02.998Z,11.10
2019-03-29T02:35:08.591Z,11.70
2019-03-29T02:38:14.130Z,10.40
2019-03-29T02:41:19.748Z,11.13
2019-03-29T02:44:25.342Z,11.00
2019-03-29T02:47:30.869Z,13.97
2019-03-29T02:50:36.860Z,11.00
2019-03-29T02:53:42.659Z,11.07
2019-03-29T02:56:48.136Z,10.33
2019-03-29T02:59:53.583Z,10.63
2019-03-29T03:02:59.201Z,9.97
2019-03-29T03:06:04.757Z,10.33
2019-03-29T03:09:14.045Z,11.27
2019-03-29T03:12:17.468Z,10.13
2019-03-29T03:15:23.085Z,12.00
2019-03-29T03:18:28.633Z,10.73
2019-03-29T03:21:34.161Z,9.83
2019-03-29T03:24:39.965Z,11.27
2019-03-29T03:27:46.201Z,10.83
2019-03-29T03:30:51.851Z,12.20
2019-03-29T03:33:57.454Z,10.93
2019-03-29T03:37:02.980Z,11.23
2019-03-29T03:40:09.993Z,10.10
2019-03-29T03:43:16.396Z,12.40
2019-03-29T03:46:22.024Z,10.93
2019-03-29T03:49:27.742Z,11.73
2019-03-29T03:52:33.408Z,12.07
2019-03-29T03:55:40.189Z,12.77
2019-03-29T03:58:47.002Z,10.87
2019-03-29T04:01:52.607Z,11.57
2019-03-29T04:04:59.495Z,12.23
2019-03-29T04:08:05.067Z,13.30
2019-03-29T04:11:10.562Z,12.40
2019-03-29T04:14:16.029Z,12.37
2019-03-29T04:17:21.491Z,12.77
2019-03-29T04:20:26.961Z,13.03
2019-03-29T04:23:32.455Z,14.50
2019-03-29T04:26:37.977Z,12.67
2019-03-29T04:29:43.427Z,12.80
2019-03-29T04:32:48.968Z,12.20
2019-03-29T04:35:54.505Z,12.07
2019-03-29T04:38:59.974Z,13.30
2019-03-29T04:42:05.521Z,14.40
2019-03-29T04:45:11.146Z,12.80
2019-03-29T04:48:16.694Z,12.30
2019-03-29T04:51:22.673Z,12.40
2019-03-29T04:54:28.208Z,12.63
2019-03-29T04:57:33.665Z,12.07
2019-03-29T05:00:39.517Z,13.37
2019-03-29T05:03:45.081Z,13.40
2019-03-29T05:06:50.530Z,13.27
2019-03-29T05:09:56.012Z,12.87
2019-03-29T05:13:01.554Z,12.03
2019-03-29T05:16:07.025Z,12.57
2019-03-29T05:19:12.553Z,13.87
2019-03-29T05:22:18.014Z,13.30
2019-03-29T05:25:23.498Z,11.97
2019-03-29T05:28:29.005Z,13.53
2019-03-29T05:31:34.471Z,12.50
2019-03-29T05:34:39.920Z,13.57
2019-03-29T05:37:45.397Z,12.33
2019-03-29T05:40:50.860Z,12.67
2019-03-29T05:43:56.336Z,13.80
2019-03-29T05:47:01.876Z,15.87
2019-03-29T05:50:09.424Z,14.80
2019-03-29T05:53:14.886Z,12.50
2019-03-29T05:56:20.439Z,13.47
2019-03-29T05:59:25.912Z,14.23
2019-03-29T06:02:31.461Z,14.40
2019-03-29T06:05:36.955Z,15.10
2019-03-29T06:08:42.403Z,14.40
2019-03-29T06:11:47.893Z,14.17
2019-03-29T06:14:53.432Z,15.00
2019-03-29T06:17:58.898Z,16.00
2019-03-29T06:21:04.442Z,14.43
2019-03-29T06:24:09.981Z,16.43
2019-03-29T06:27:15.526Z,14.87
2019-03-29T06:30:30.025Z,21.23
2019-03-29T06:33:35.804Z,16.23
2019-03-29T06:36:42.309Z,17.67
2019-03-29T06:39:48.776Z,14.70
2019-03-29T06:42:54.701Z,16.67
2019-03-29T06:46:00.239Z,16.17
2019-03-29T06:49:05.840Z,15.87
2019-03-29T06:52:11.409Z,16.80
2019-03-29T06:55:17.181Z,16.20
2019-03-29T06:58:22.771Z,16.57
2019-03-29T07:01:28.386Z,16.00
2019-03-29T07:04:33.872Z,15.27
2019-03-29T07:07:39.505Z,16.73
2019-03-29T07:10:44.973Z,15.90
2019-03-29T07:13:57.358Z,15.90
2019-03-29T07:16:57.752Z,15.80
2019-03-29T07:20:03.471Z,16.83
2019-03-29T07:23:09.051Z,16.90
2019-03-29T07:26:14.581Z,13.20
2019-03-29T07:29:20.929Z,13.27
2019-03-29T07:32:26.545Z,14.00
2019-03-29T07:35:32.098Z,15.20
2019-03-29T07:38:37.608Z,14.77
2019-03-29T07:41:43.072Z,13.80
2019-03-29T07:44:48.885Z,12.60
2019-03-29T07:47:54.453Z,14.30
2019-03-29T07:51:00.091Z,11.77
2019-03-29T07:54:05.649Z,11.97
2019-03-29T07:57:11.125Z,11.70
2019-03-29T08:00:20.189Z,10.63
2019-03-29T08:03:23.995Z,12.43
2019-03-29T08:06:29.685Z,9.70
2019-03-29T08:09:35.403Z,10.50
2019-03-29T08:12:40.892Z,12.00
2019-03-29T08:15:46.379Z,12.17
2019-03-29T08:18:51.926Z,12.00
2019-03-29T08:21:58.067Z,11.80
2019-03-29T08:25:03.842Z,12.00
2019-03-29T08:28:09.379Z,10.63
2019-03-29T08:31:15.037Z,10.80
2019-03-29T08:34:20.523Z,10.07
2019-03-29T08:37:26.145Z,9.67
2019-03-29T08:40:31.690Z,10.13
2019-03-29T08:43:37.266Z,9.00
2019-03-29T08:46:42.712Z,9.93
2019-03-29T08:49:48.197Z,8.93
2019-03-29T08:52:53.803Z,8.13
2019-03-29T08:55:59.353Z,7.90
2019-03-29T08:59:04.830Z,6.53
2019-03-29T09:02:10.538Z,6.00
2019-03-29T09:05:16.149Z,5.33
2019-03-29T09:08:21.791Z,4.73
2019-03-29T09:11:27.260Z,5.30
2019-03-29T09:14:32.797Z,6.93
2019-03-29T09:17:38.262Z,6.10
2019-03-29T09:20:43.790Z,5.53
2019-03-29T09:23:49.357Z,5.90
2019-03-29T09:26:54.888Z,5.40
2019-03-29T09:30:00.506Z,6.80
2019-03-29T09:33:06.264Z,5.07
2019-03-29T09:36:11.918Z,5.47
2019-03-29T09:39:17.538Z,5.47
2019-03-29T09:42:29.598Z,5.43
2019-03-29T09:45:30.424Z,5.80
2019-03-29T09:48:35.978Z,4.77
2019-03-29T09:51:41.530Z,5.10
2019-03-29T09:54:47.089Z,5.77
2019-03-29T09:57:52.632Z,5.30
2019-03-29T10:00:58.477Z,5.30
2019-03-29T10:04:04.099Z,5.27
2019-03-29T10:07:09.566Z,5.50
2019-03-29T10:10:17.657Z,5.40
2019-03-29T10:13:23.201Z,6.00
2019-03-29T10:16:28.733Z,5.63
2019-03-29T10:19:34.651Z,4.87
2019-03-29T10:22:40.313Z,4.87
2019-03-29T10:25:45.953Z,5.80
2019-03-29T10:28:51.442Z,5.40
2019-03-29T10:31:56.925Z,5.80
2019-03-29T10:35:02.569Z,5.10
2019-03-29T10:38:08.194Z,5.40
2019-03-29T10:41:13.696Z,6.07
2019-03-29T10:44:19.244Z,5.50
2019-03-29T10:47:42.065Z,5.60
2019-03-29T10:50:31.926Z,6.67
2019-03-29T10:53:37.568Z,6.10
2019-03-29T10:56:43.295Z,5.33
2019-03-29T10:59:48.931Z,5.40
2019-03-29T11:02:54.393Z,5.33
2019-03-29T11:06:01.248Z,5.97
2019-03-29T11:09:08.120Z,6.00
2019-03-29T11:12:13.665Z,7.27
2019-03-29T11:15:19.214Z,6.47
2019-03-29T11:18:24.758Z,6.23
2019-03-29T11:21:30.289Z,7.30
2019-03-29T11:24:35.769Z,6.93
2019-03-29T11:27:41.229Z,6.37
2019-03-29T11:30:46.785Z,7.37
2019-03-29T11:33:52.335Z,6.70
2019-03-29T11:36:57.813Z,7.57
2019-03-29T11:40:03.520Z,5.97
2019-03-29T11:43:09.080Z,7.50
2019-03-29T11:46:14.565Z,6.10
2019-03-29T11:49:20.153Z,6.80
2019-03-29T11:52:25.750Z,7.17
2019-03-29T11:55:31.413Z,6.67
2019-03-29T11:58:36.960Z,7.40
2019-03-29T12:01:42.508Z,6.40
2019-03-29T12:04:48.059Z,6.53
2019-03-29T12:07:53.542Z,7.37
2019-03-29T12:10:58.993Z,6.63
2019-03-29T12:14:05.171Z,8.23
2019-03-29T12:17:10.786Z,7.20
2019-03-29T12:20:16.515Z,6.90
2019-03-29T12:23:22.360Z,6.37
2019-03-29T12:26:28.208Z,6.93
2019-03-29T12:29:33.772Z,7.57
2019-03-29T12:32:39.389Z,11.70
2019-03-29T12:35:44.873Z,7.17
2019-03-29T12:38:50.548Z,6.20
2019-03-29T12:41:56.219Z,6.20
2019-03-29T12:45:01.787Z,6.53
2019-03-29T12:48:07.461Z,6.57
2019-03-29T12:51:13.038Z,6.00
2019-03-29T12:54:18.854Z,5.63
2019-03-29T12:57:24.441Z,7.17
2019-03-29T13:00:30.277Z,6.53
2019-03-29T13:03:35.915Z,6.20
2019-03-29T13:06:41.373Z,6.63
2019-03-29T13:09:46.838Z,7.00
2019-03-29T13:12:52.537Z,6.47
2019-03-29T13:15:58.060Z,7.03
2019-03-29T13:19:03.638Z,7.00
2019-03-29T13:22:09.645Z,5.77
2019-03-29T13:25:15.280Z,6.10
2019-03-29T13:28:20.802Z,7.07
2019-03-29T13:31:26.370Z,6.37
2019-03-29T13:34:31.929Z,6.43
2019-03-29T13:37:37.475Z,7.30
2019-03-29T13:40:43.154Z,6.67
2019-03-29T13:43:48.723Z,7.30
2019-03-29T13:46:54.367Z,7.10
2019-03-29T13:49:59.960Z,8.00
2019-03-29T13:53:05.546Z,7.47
2019-03-29T13:56:11.210Z,7.17
2019-03-29T13:59:16.861Z,6.53
2019-03-29T14:02:22.397Z,8.50
2019-03-29T14:05:27.913Z,6.87
2019-03-29T14:08:33.387Z,7.57
2019-03-29T14:11:39.795Z,7.27
2019-03-29T14:14:45.560Z,6.07
2019-03-29T14:17:51.093Z,7.03
2019-03-29T14:20:56.698Z,6.20
2019-03-29T14:24:02.394Z,7.07
2019-03-29T14:27:07.903Z,6.80
2019-03-29T14:30:13.605Z,7.27
2019-03-29T14:33:19.093Z,7.10
2019-03-29T14:36:24.629Z,7.17
2019-03-29T14:39:30.234Z,5.90
2019-03-29T14:42:36.155Z,7.07
2019-03-29T14:45:41.746Z,7.27
2019-03-29T14:48:47.267Z,5.93
2019-03-29T14:51:52.911Z,6.87
2019-03-29T14:54:58.518Z,5.67
2019-03-29T14:58:04.105Z,6.17
2019-03-29T15:01:09.769Z,6.97
2019-03-29T15:04:15.354Z,6.80
2019-03-29T15:07:21.086Z,7.27
2019-03-29T15:10:27.430Z,5.60
2019-03-29T15:13:33.036Z,6.83
2019-03-29T15:16:38.509Z,7.03
2019-03-29T15:19:44.057Z,6.60
2019-03-29T15:22:49.796Z,7.03
2019-03-29T15:25:55.490Z,5.87
2019-03-29T15:29:01.135Z,6.93
2019-03-29T15:32:06.733Z,6.70
2019-03-29T15:35:12.474Z,6.50
2019-03-29T15:38:17.940Z,6.40
2019-03-29T15:41:23.596Z,7.07
2019-03-29T15:44:29.130Z,6.53
2019-03-29T15:47:34.625Z,6.50
2019-03-29T15:50:40.094Z,6.10
2019-03-29T15:53:45.653Z,6.20
2019-03-29T15:56:51.133Z,7.40
2019-03-29T15:59:56.696Z,7.00
2019-03-29T16:03:02.244Z,6.67
2019-03-29T16:06:07.915Z,6.63
2019-03-29T16:09:13.610Z,6.13
2019-03-29T16:12:19.139Z,6.03
2019-03-29T16:15:34.955Z,6.30
2019-03-29T16:18:31.989Z,6.27
2019-03-29T16:21:38.931Z,6.20
2019-03-29T16:24:44.476Z,6.50
2019-03-29T16:27:50.108Z,6.67
2019-03-29T16:30:55.696Z,6.40
2019-03-29T16:34:01.177Z,6.90
2019-03-29T16:37:06.911Z,6.63
2019-03-29T16:40:12.824Z,7.53
2019-03-29T16:43:18.512Z,7.80
2019-03-29T16:46:24.104Z,7.27
2019-03-29T16:49:30.099Z,7.70
2019-03-29T16:52:35.871Z,7.37
2019-03-29T16:55:41.506Z,8.03
2019-03-29T16:58:47.230Z,7.13
2019-03-29T17:01:52.935Z,6.23
2019-03-29T17:04:58.708Z,6.30
2019-03-29T17:08:05.510Z,7.10
2019-03-29T17:11:11.504Z,7.47
2019-03-29T17:14:17.105Z,7.13
2019-03-29T17:17:22.835Z,6.73
2019-03-29T17:20:28.581Z,5.90
2019-03-29T17:23:34.166Z,6.93
2019-03-29T17:26:39.816Z,6.77
2019-03-29T17:29:45.591Z,7.50
2019-03-29T17:32:51.101Z,7.13
2019-03-29T17:35:58.702Z,6.70
2019-03-29T17:39:06.147Z,7.05
2019-03-29T17:42:11.629Z,7.90
2019-03-29T19:21:47.752Z,10.00
2019-03-29T19:24:53.232Z,10.97
2019-03-29T19:27:58.701Z,12.13
2019-03-29T19:31:04.317Z,12.47
2019-03-29T19:34:09.777Z,12.13
2019-03-29T19:37:15.350Z,12.23
2019-03-29T19:40:20.877Z,12.87
2019-03-29T19:43:26.355Z,12.93
2019-03-29T19:46:31.824Z,13.67
2019-03-29T19:49:37.433Z,14.00
2019-03-29T19:52:43.207Z,13.23
2019-03-29T19:55:48.727Z,12.97
2019-03-29T19:58:54.185Z,11.40
2019-03-29T20:01:59.729Z,13.23
2019-03-29T20:05:06.949Z,15.10
2019-03-29T20:08:12.588Z,17.70
2019-03-29T20:11:18.064Z,16.13
2019-03-29T20:14:23.653Z,18.23
2019-03-29T20:17:29.225Z,18.60
2019-03-29T20:20:34.786Z,67.20
2019-03-29T20:23:40.307Z,20.90
2019-03-29T20:26:45.847Z,20.53
2019-03-29T20:29:51.309Z,17.80
2019-03-29T20:32:56.865Z,17.40
2019-03-29T20:36:02.479Z,17.30
2019-03-29T20:39:08.512Z,16.57
2019-03-29T20:42:13.957Z,15.73
2019-03-29T20:45:19.979Z,15.03
2019-03-29T20:48:25.450Z,15.13
2019-03-29T20:51:31.037Z,15.87
2019-03-29T20:54:36.571Z,17.63
2019-03-29T20:57:42.114Z,16.53
2019-03-29T21:00:48.885Z,18.37
2019-03-29T21:03:54.503Z,20.00
2019-03-29T21:06:59.966Z,16.90
2019-03-29T21:10:06.005Z,17.37
2019-03-29T21:13:11.503Z,15.53
2019-03-29T21:16:17.115Z,17.30
2019-03-29T21:19:22.589Z,16.20
2019-03-29T21:22:28.186Z,14.77
2019-03-29T21:25:33.808Z,18.10
2019-03-29T21:28:39.269Z,14.70
2019-03-29T21:31:44.750Z,17.07
2019-03-29T21:34:50.244Z,16.40
2019-03-29T21:37:55.706Z,14.60
2019-03-29T21:41:01.165Z,15.73
2019-03-29T21:44:06.655Z,18.50
2019-03-29T21:47:12.196Z,17.27
2019-03-29T21:50:18.013Z,18.27
2019-03-29T21:53:23.484Z,17.03
2019-03-29T21:56:28.937Z,16.23
2019-03-29T21:59:34.464Z,15.03
2019-03-29T22:02:39.999Z,16.47
2019-03-29T22:05:45.476Z,14.03
2019-03-29T22:08:50.955Z,15.03
2019-03-29T22:11:56.412Z,13.63
2019-03-29T22:15:02.040Z,14.53
2019-03-29T22:18:07.583Z,16.27
2019-03-29T22:21:13.056Z,15.30
2019-03-29T22:24:18.644Z,14.90
2019-03-29T22:27:24.192Z,16.47
2019-03-29T22:30:29.665Z,14.47
2019-03-29T22:33:35.125Z,17.60
2019-03-29T22:36:40.580Z,16.63
2019-03-29T22:39:46.116Z,19.07
2019-03-29T22:42:51.580Z,23.57
2019-03-29T22:45:57.118Z,19.93
2019-03-29T22:49:02.573Z,17.80
2019-03-29T22:52:08.137Z,18.27
2019-03-29T22:55:13.742Z,17.13
2019-03-29T22:58:19.305Z,19.40
2019-03-29T23:01:24.953Z,19.50
2019-03-29T23:04:30.497Z,17.90
2019-03-29T23:07:35.942Z,17.17
2019-03-29T23:10:41.460Z,15.60
2019-03-29T23:13:47.277Z,16.87
2019-03-29T23:16:52.846Z,16.37
2019-03-29T23:19:58.303Z,15.47
2019-03-29T23:23:03.751Z,16.30
2019-03-29T23:26:09.289Z,15.30
2019-03-29T23:29:14.747Z,14.83
2019-03-29T23:32:20.316Z,18.83
2019-03-29T23:35:25.852Z,17.20
2019-03-29T23:38:31.306Z,16.13
2019-03-29T23:41:36.849Z,16.17
2019-03-29T23:44:42.288Z,14.70
2019-03-29T23:47:47.756Z,16.37
2019-03-29T23:50:53.212Z,16.50
2019-03-29T23:53:58.740Z,13.70
2019-03-29T23:57:04.272Z,15.03
